createdAt,value
2023-05-24T00:01:31.032Z,102227.44
2023-05-24T00:04:04.453Z,102230.06
2023-05-24T00:06:37.477Z,102228.38
2023-05-24T00:09:09.724Z,102223.06
2023-05-24T00:11:41.867Z,102224.81
2023-05-24T00:14:19.979Z,102224.81
2023-05-24T00:16:52.253Z,102217.00
2023-05-24T00:19:24.640Z,102217.84
2023-05-24T00:21:56.836Z,102224.69
2023-05-24T00:24:29.044Z,102218.47
2023-05-24T00:27:01.340Z,102215.06
2023-05-24T00:29:33.576Z,102216.78
2023-05-24T00:32:06.516Z,102208.03
2023-05-24T00:34:38.878Z,102209.09
2023-05-24T00:37:10.980Z,102217.69
2023-05-24T00:39:44.510Z,102202.94
2023-05-24T00:42:16.803Z,102211.72
2023-05-24T00:44:49.431Z,102198.63
2023-05-24T00:47:21.751Z,102201.22
2023-05-24T00:50:00.333Z,102203.84
2023-05-24T00:52:32.808Z,102202.78
2023-05-24T00:55:06.021Z,102209.84
2023-05-24T00:57:38.620Z,102207.97
2023-05-24T01:00:11.611Z,102201.13
2023-05-24T01:02:43.767Z,102202.94
2023-05-24T01:05:17.765Z,102203.84
2023-05-24T01:08:15.808Z,102198.63
2023-05-24T01:11:23.102Z,102201.19
2023-05-24T01:14:30.489Z,102194.16
2023-05-24T01:17:16.042Z,102197.78
2023-05-24T01:20:11.469Z,102193.47
2023-05-24T01:23:07.794Z,102194.31
2023-05-24T01:25:50.143Z,102198.66
2023-05-24T01:28:24.500Z,102194.09
2023-05-24T01:30:56.883Z,102200.16
2023-05-24T01:33:29.870Z,102194.09
2023-05-24T01:36:02.179Z,102187.28
2023-05-24T01:38:34.411Z,102196.16
2023-05-24T01:41:46.292Z,102187.19
2023-05-24T01:45:18.100Z,102191.41
2023-05-24T01:52:29.263Z,102184.59
2023-05-24T02:03:09.031Z,102185.56
2023-05-24T02:06:04.384Z,102183.06
2023-05-24T02:08:39.156Z,102181.38
2023-05-24T02:19:36.876Z,102179.50
2023-05-24T02:26:14.221Z,102177.69
2023-05-24T02:40:45.649Z,102168.88
2023-05-24T02:47:23.683Z,102169.53
2023-05-24T02:53:25.371Z,102167.16
2023-05-24T02:56:43.609Z,102166.38
2023-05-24T03:00:56.753Z,102169.94
2023-05-24T03:03:53.588Z,102169.06
2023-05-24T03:06:29.647Z,102167.28
2023-05-24T03:13:20.991Z,102162.91
2023-05-24T03:31:11.540Z,102161.19
2023-05-24T03:34:43.289Z,102163.88
2023-05-24T03:49:12.793Z,102153.47
2023-05-24T03:52:27.096Z,102148.25
2023-05-24T03:55:09.305Z,102150.84
2023-05-24T03:58:28.535Z,102154.47
2023-05-24T04:01:08.381Z,102163.06
2023-05-24T04:03:59.109Z,102148.19
2023-05-24T04:06:56.786Z,102155.09
2023-05-24T04:09:29.839Z,102149.81
2023-05-24T04:22:36.129Z,102172.19
2023-05-24T04:25:16.216Z,102167.84
2023-05-24T04:31:07.672Z,102170.44
2023-05-24T04:33:45.217Z,102180.94
2023-05-24T04:37:49.368Z,102166.00
2023-05-24T04:40:52.665Z,102180.75
2023-05-24T04:48:11.249Z,102180.06
2023-05-24T04:51:25.492Z,102179.97
2023-05-24T04:56:32.292Z,102184.25
2023-05-24T04:59:08.647Z,102191.34
2023-05-24T05:01:41.841Z,102196.50
2023-05-24T05:04:19.859Z,102192.88
2023-05-24T05:06:59.789Z,102192.16
2023-05-24T05:09:33.080Z,102185.38
2023-05-24T05:12:08.546Z,102182.03
2023-05-24T05:14:53.114Z,102189.91
2023-05-24T05:17:26.843Z,102193.34
2023-05-24T05:20:01.901Z,102195.09
2023-05-24T05:22:36.368Z,102197.69
2023-05-24T05:25:12.443Z,102195.03
2023-05-24T05:28:07.035Z,102194.16
2023-05-24T05:30:45.504Z,102198.47
2023-05-24T05:33:20.351Z,102207.03
2023-05-24T05:35:55.129Z,102194.03
2023-05-24T05:38:34.486Z,102189.47
2023-05-24T05:41:09.194Z,102199.16
2023-05-24T05:43:43.495Z,102190.47
2023-05-24T05:46:23.646Z,102195.88
2023-05-24T05:49:04.937Z,102196.78
2023-05-24T05:55:18.157Z,102196.06
2023-05-24T05:57:54.032Z,102196.06
2023-05-24T06:05:08.097Z,102204.91
2023-05-24T06:10:40.441Z,102210.00
2023-05-24T06:16:09.315Z,102200.47
2023-05-24T06:18:57.227Z,102210.06
2023-05-24T06:22:07.156Z,102216.28
2023-05-24T06:24:44.594Z,102217.13
2023-05-24T06:27:17.609Z,102225.81
2023-05-24T06:29:49.899Z,102218.03
2023-05-24T06:32:22.364Z,102228.69
2023-05-24T06:34:54.648Z,102230.50
2023-05-24T06:37:26.900Z,102234.63
2023-05-24T06:39:59.386Z,102237.28
2023-05-24T06:42:31.713Z,102234.84
2023-05-24T06:45:04.489Z,102237.63
2023-05-24T06:47:37.502Z,102240.25
2023-05-24T06:50:10.234Z,102242.06
2023-05-24T06:52:44.172Z,102236.94
2023-05-24T06:55:16.941Z,102252.75
2023-05-24T06:57:49.481Z,102243.13
2023-05-24T07:00:22.614Z,102248.38
2023-05-24T07:02:55.157Z,102246.69
2023-05-24T07:05:27.943Z,102247.66
2023-05-24T07:08:00.520Z,102248.56
2023-05-24T07:10:33.105Z,102246.09
2023-05-24T07:13:05.678Z,102255.69
2023-05-24T07:15:37.973Z,102247.75
2023-05-24T07:18:10.622Z,102252.25
2023-05-24T07:20:43.235Z,102264.44
2023-05-24T07:23:15.991Z,102266.03
2023-05-24T07:25:48.413Z,102265.19
2023-05-24T07:28:20.609Z,102271.31
2023-05-24T07:30:53.094Z,102273.16
2023-05-24T07:33:25.575Z,102271.44
2023-05-24T07:35:58.534Z,102267.09
2023-05-24T07:38:31.434Z,102256.63
2023-05-24T07:41:04.999Z,102272.31
2023-05-24T07:43:37.932Z,102262.75
2023-05-24T07:46:13.393Z,102261.06
2023-05-24T07:48:46.307Z,102281.13
2023-05-24T07:51:18.773Z,102273.38
2023-05-24T07:53:51.553Z,102283.09
2023-05-24T07:56:24.065Z,102278.75
2023-05-24T07:59:03.848Z,102284.88
2023-05-24T08:01:37.020Z,102286.69
2023-05-24T08:04:13.126Z,102286.69
2023-05-24T08:06:47.025Z,102288.44
2023-05-24T08:09:19.315Z,102287.50
2023-05-24T08:11:51.911Z,102288.50
2023-05-24T08:14:24.217Z,102289.38
2023-05-24T08:16:56.771Z,102287.66
2023-05-24T08:19:35.900Z,102283.38
2023-05-24T08:22:08.351Z,102285.22
2023-05-24T08:24:40.990Z,102280.84
2023-05-24T08:27:14.317Z,102286.09
2023-05-24T08:29:46.865Z,102292.31
2023-05-24T08:32:19.163Z,102294.03
2023-05-24T08:34:57.762Z,102300.16
2023-05-24T08:37:33.607Z,102289.66
2023-05-24T08:40:09.911Z,102300.16
2023-05-24T08:42:42.607Z,102309.72
2023-05-24T08:45:16.378Z,102311.50
2023-05-24T08:47:52.399Z,102314.97
2023-05-24T08:50:25.177Z,102316.75
2023-05-24T08:52:59.994Z,102309.00
2023-05-24T08:55:33.628Z,102317.66
2023-05-24T08:58:06.715Z,102316.78
2023-05-24T09:00:39.049Z,102308.09
2023-05-24T09:03:15.334Z,102315.13
2023-05-24T09:05:48.299Z,102318.59
2023-05-24T09:08:21.766Z,102308.84
2023-05-24T09:10:56.430Z,102314.06
2023-05-24T09:13:28.984Z,102308.91
2023-05-24T09:16:02.661Z,102311.59
2023-05-24T09:18:35.141Z,102309.72
2023-05-24T09:21:08.851Z,102328.06
2023-05-24T09:23:42.467Z,102317.66
2023-05-24T09:26:15.053Z,102325.78
2023-05-24T09:28:48.609Z,102333.75
2023-05-24T09:31:32.722Z,102325.88
2023-05-24T09:34:10.554Z,102327.66
2023-05-24T09:36:43.476Z,102330.25
2023-05-24T09:39:17.367Z,102331.06
2023-05-24T09:41:57.491Z,102335.44
2023-05-24T09:44:30.290Z,102337.19
2023-05-24T09:47:06.974Z,102339.84
2023-05-24T09:49:39.763Z,102339.78
2023-05-24T09:52:17.978Z,102345.97
2023-05-24T09:54:50.540Z,102342.53
2023-05-24T09:57:25.597Z,102343.50
2023-05-24T10:03:48.119Z,102341.91
2023-05-24T10:06:21.755Z,102336.78
2023-05-24T10:08:57.734Z,102335.25
2023-05-24T10:11:30.167Z,102330.97
2023-05-24T10:14:09.582Z,102325.66
2023-05-24T10:17:00.734Z,102326.56
2023-05-24T10:19:34.883Z,102334.41
2023-05-24T10:22:09.277Z,102338.75
2023-05-24T10:24:48.456Z,102332.59
2023-05-24T10:27:32.017Z,102328.19
2023-05-24T10:30:41.266Z,102330.03
2023-05-24T10:33:15.082Z,102331.84
2023-05-24T10:35:47.859Z,102328.34
2023-05-24T10:38:24.719Z,102326.56
2023-05-24T10:41:00.700Z,102330.97
2023-05-24T10:43:33.263Z,102328.34
2023-05-24T10:46:12.632Z,102334.41
2023-05-24T10:48:45.888Z,102343.19
2023-05-24T10:51:42.431Z,102341.44
2023-05-24T10:54:24.925Z,102339.69
2023-05-24T10:57:05.959Z,102345.88
2023-05-24T10:59:45.538Z,102337.09
2023-05-24T11:02:21.612Z,102344.13
2023-05-24T11:04:58.064Z,102346.78
2023-05-24T11:07:33.902Z,102345.88
2023-05-24T11:10:15.378Z,102348.50
2023-05-24T11:12:59.133Z,102348.44
2023-05-24T11:15:31.341Z,102347.56
2023-05-24T11:18:15.763Z,102353.66
2023-05-24T11:20:48.963Z,102348.41
2023-05-24T11:26:11.550Z,102357.16
2023-05-24T11:28:47.987Z,102352.75
2023-05-24T11:31:33.342Z,102351.06
2023-05-24T11:34:10.118Z,102362.47
2023-05-24T11:36:43.176Z,102370.38
2023-05-24T11:39:16.484Z,102361.59
2023-05-24T11:41:48.968Z,102364.25
2023-05-24T11:44:22.365Z,102363.38
2023-05-24T11:47:00.290Z,102362.50
2023-05-24T11:52:13.359Z,102368.63
2023-05-24T11:54:45.743Z,102363.44
2023-05-24T11:57:26.563Z,102367.81
2023-05-24T11:59:58.829Z,102368.72
2023-05-24T12:02:34.576Z,102369.59
2023-05-24T12:05:12.066Z,102365.19
2023-05-24T12:07:49.067Z,102367.84
2023-05-24T12:10:22.997Z,102377.56
2023-05-24T12:12:55.329Z,102373.97
2023-05-24T12:15:27.565Z,102380.13
2023-05-24T12:18:00.353Z,102376.50
2023-05-24T12:20:32.598Z,102373.00
2023-05-24T12:23:04.747Z,102371.34
2023-05-24T12:25:38.162Z,102369.59
2023-05-24T12:28:10.669Z,102372.25
2023-05-24T12:30:45.198Z,102373.03
2023-05-24T12:33:20.777Z,102375.47
2023-05-24T12:35:55.595Z,102376.13
2023-05-24T12:38:35.690Z,102381.88
2023-05-24T12:41:13.695Z,102383.81
2023-05-24T12:43:46.433Z,102384.00
2023-05-24T12:46:18.614Z,102380.53
2023-05-24T12:48:50.751Z,102385.81
2023-05-24T12:51:23.209Z,102387.69
2023-05-24T12:55:15.132Z,102386.03
2023-05-24T12:57:54.741Z,102391.31
2023-05-24T13:00:29.050Z,102393.00
2023-05-24T13:03:01.420Z,102390.41
2023-05-24T13:05:33.695Z,102385.31
2023-05-24T13:08:05.921Z,102395.59
2023-05-24T13:10:44.015Z,102396.13
2023-05-24T13:13:16.464Z,102387.56
2023-05-24T13:15:49.192Z,102388.72
2023-05-24T13:18:21.393Z,102393.38
2023-05-24T13:20:53.631Z,102398.88
2023-05-24T13:23:25.811Z,102397.50
2023-05-24T13:25:58.151Z,102390.47
2023-05-24T13:28:34.457Z,102402.78
2023-05-24T13:31:06.914Z,102397.56
2023-05-24T13:33:39.705Z,102400.16
2023-05-24T13:36:12.516Z,102395.00
2023-05-24T13:38:45.129Z,102402.94
2023-05-24T13:41:17.280Z,102397.69
2023-05-24T13:43:50.823Z,102403.88
2023-05-24T13:46:23.787Z,102395.09
2023-05-24T13:48:57.386Z,102406.50
2023-05-24T13:52:58.470Z,102402.06
2023-05-24T13:55:37.963Z,102402.09
2023-05-24T13:58:10.557Z,102397.75
2023-05-24T14:00:43.229Z,102402.97
2023-05-24T14:03:16.122Z,102395.88
2023-05-24T14:05:48.898Z,102394.09
2023-05-24T14:08:21.355Z,102394.91
2023-05-24T14:10:53.944Z,102392.22
2023-05-24T14:14:20.370Z,102394.84
2023-05-24T14:16:19.111Z,102394.00
2023-05-24T14:18:52.162Z,102402.00
2023-05-24T14:21:27.568Z,102407.31
2023-05-24T14:24:00.299Z,102402.94
2023-05-24T14:26:32.856Z,102402.91
2023-05-24T14:29:05.218Z,102402.03
2023-05-24T14:31:42.498Z,102406.38
2023-05-24T14:34:14.742Z,102413.38
2023-05-24T14:36:48.306Z,102403.59
2023-05-24T14:39:20.647Z,102410.66
2023-05-24T14:41:52.818Z,102405.34
2023-05-24T14:44:25.030Z,102415.03
2023-05-24T14:46:57.154Z,102404.53
2023-05-24T14:49:29.408Z,102409.91
2023-05-24T14:52:02.023Z,102400.25
2023-05-24T14:54:34.165Z,102409.00
2023-05-24T14:57:08.075Z,102401.09
2023-05-24T14:59:40.956Z,102400.97
2023-05-24T15:02:13.165Z,102405.38
2023-05-24T15:04:45.304Z,102407.09
2023-05-24T15:07:17.952Z,102411.44
2023-05-24T15:09:50.063Z,102401.84
2023-05-24T15:12:23.243Z,102406.19
2023-05-24T15:14:55.357Z,102406.19
2023-05-24T15:17:27.751Z,102408.00
2023-05-24T15:20:00.189Z,102407.09
2023-05-24T15:22:33.637Z,102407.19
2023-05-24T15:25:43.285Z,102421.38
2023-05-24T15:28:17.350Z,102414.34
2023-05-24T15:30:49.885Z,102412.59
2023-05-24T15:33:22.181Z,102412.66
2023-05-24T15:35:55.058Z,102415.28
2023-05-24T15:38:27.174Z,102419.69
2023-05-24T15:40:59.310Z,102417.06
2023-05-24T15:43:31.954Z,102415.25
2023-05-24T15:46:06.093Z,102406.47
2023-05-24T15:48:39.302Z,102412.66
2023-05-24T15:53:48.394Z,102411.78
2023-05-24T15:56:21.784Z,102417.91
2023-05-24T15:58:54.045Z,102420.53
2023-05-24T16:01:26.260Z,102414.41
2023-05-24T16:03:58.400Z,102411.75
2023-05-24T16:06:33.763Z,102415.28
2023-05-24T16:09:07.249Z,102414.38
2023-05-24T16:11:39.418Z,102409.97
2023-05-24T16:14:11.661Z,102413.53
2023-05-24T16:16:44.759Z,102411.78
2023-05-24T16:19:17.182Z,102414.44
2023-05-24T16:21:49.372Z,102408.25
2023-05-24T16:24:21.545Z,102403.91
2023-05-24T16:26:53.630Z,102408.28
2023-05-24T16:29:26.891Z,102411.78
2023-05-24T16:31:59.148Z,102406.50
2023-05-24T16:34:38.732Z,102398.63
2023-05-24T16:37:17.564Z,102401.25
2023-05-24T16:39:49.723Z,102404.78
2023-05-24T16:42:21.932Z,102402.09
2023-05-24T16:44:54.232Z,102406.47
2023-05-24T16:47:29.467Z,102408.22
2023-05-24T16:50:04.189Z,102408.22
2023-05-24T16:52:36.580Z,102412.59
2023-05-24T16:55:10.899Z,102413.47
2023-05-24T16:57:43.103Z,102400.31
2023-05-24T17:00:34.156Z,102404.72
2023-05-24T17:03:06.767Z,102408.22
2023-05-24T17:05:39.705Z,102395.94
2023-05-24T17:08:11.937Z,102411.72
2023-05-24T17:10:44.311Z,102405.59
2023-05-24T17:13:16.496Z,102411.72
2023-05-24T17:15:52.065Z,102409.09
2023-05-24T17:18:28.751Z,102410.84
2023-05-24T17:21:03.542Z,102411.72
2023-05-24T17:23:39.877Z,102413.44
2023-05-24T17:26:14.974Z,102410.81
2023-05-24T17:28:47.315Z,102423.06
2023-05-24T17:31:19.698Z,102415.19
2023-05-24T17:33:51.971Z,102419.59
2023-05-24T17:36:24.235Z,102418.69
2023-05-24T17:38:56.417Z,102420.47
2023-05-24T17:41:28.652Z,102434.41
2023-05-24T17:44:01.140Z,102426.44
2023-05-24T17:46:35.757Z,102425.56
2023-05-24T17:49:08.626Z,102430.84
2023-05-24T17:51:40.919Z,102431.69
2023-05-24T17:54:13.091Z,102427.31
2023-05-24T17:56:45.320Z,102443.97
2023-05-24T17:59:17.591Z,102444.84
2023-05-24T18:01:49.864Z,102436.06
2023-05-24T18:04:22.215Z,102444.88
2023-05-24T18:06:55.572Z,102439.56
2023-05-24T18:09:27.675Z,102451.78
2023-05-24T18:11:59.775Z,102445.56
2023-05-24T18:14:32.301Z,102446.44
2023-05-24T18:17:05.171Z,102446.44
2023-05-24T18:19:37.802Z,102451.69
2023-05-24T18:22:09.920Z,102453.38
2023-05-24T18:24:42.016Z,102447.16
2023-05-24T18:27:14.316Z,102464.72
2023-05-24T18:29:46.632Z,102446.31
2023-05-24T18:32:20.036Z,102449.03
2023-05-24T18:34:55.145Z,102462.22
2023-05-24T18:37:28.229Z,102456.91
2023-05-24T18:40:00.793Z,102457.78
2023-05-24T18:42:33.080Z,102455.94
2023-05-24T18:45:06.099Z,102460.28
2023-05-24T18:47:38.703Z,102467.22
2023-05-24T18:50:11.562Z,102462.84
2023-05-24T18:52:47.228Z,102458.53
2023-05-24T18:55:19.431Z,102461.22
2023-05-24T18:57:51.748Z,102465.63
2023-05-24T19:00:24.734Z,102461.28
2023-05-24T19:02:57.093Z,102463.94
2023-05-24T19:05:29.412Z,102455.13
2023-05-24T19:08:01.583Z,102469.13
2023-05-24T19:10:35.520Z,102461.22
2023-05-24T19:13:07.957Z,102464.72
2023-05-24T19:15:40.121Z,102461.16
2023-05-24T19:18:12.221Z,102467.28
2023-05-24T19:20:44.441Z,102467.34
2023-05-24T19:23:16.631Z,102461.16
2023-05-24T19:25:50.562Z,102469.91
2023-05-24T19:28:22.927Z,102466.38
2023-05-24T19:30:55.152Z,102482.09
2023-05-24T19:33:27.357Z,102480.34
2023-05-24T19:35:59.675Z,102477.72
2023-05-24T19:38:31.958Z,102477.69
2023-05-24T19:41:22.452Z,102485.59
2023-05-24T19:43:58.744Z,102490.81
2023-05-24T19:46:33.427Z,102496.97
2023-05-24T19:49:05.772Z,102495.22
2023-05-24T19:51:38.482Z,102504.00
2023-05-24T19:54:11.343Z,102499.63
2023-05-24T19:56:43.640Z,102507.47
2023-05-24T19:59:15.922Z,102503.94
2023-05-24T20:01:48.069Z,102505.66
2023-05-24T20:04:20.308Z,102508.22
2023-05-24T20:07:54.012Z,102503.78
2023-05-24T20:10:27.830Z,102509.88
2023-05-24T20:13:00.029Z,102517.66
2023-05-24T20:15:32.465Z,102516.72
2023-05-24T20:18:04.745Z,102512.97
2023-05-24T20:21:23.538Z,102516.44
2023-05-24T20:23:58.433Z,102527.75
2023-05-24T20:26:33.554Z,102525.16
2023-05-24T20:29:05.781Z,102529.47
2023-05-24T20:31:38.072Z,102522.47
2023-05-24T20:34:10.264Z,102521.59
2023-05-24T20:36:43.940Z,102529.50
2023-05-24T20:39:16.390Z,102530.19
2023-05-24T20:41:48.513Z,102529.31
2023-05-24T20:44:20.610Z,102531.88
2023-05-24T20:46:52.730Z,102530.19
2023-05-24T20:49:24.798Z,102538.13
2023-05-24T20:51:58.797Z,102545.19
2023-05-24T20:54:31.182Z,102544.34
2023-05-24T20:57:03.476Z,102546.13
2023-05-24T20:59:36.026Z,102543.50
2023-05-24T21:02:08.197Z,102551.47
2023-05-24T21:04:40.534Z,102549.72
2023-05-24T21:07:12.638Z,102549.78
2023-05-24T21:09:44.759Z,102557.59
2023-05-24T21:12:16.944Z,102552.19
2023-05-24T21:14:49.424Z,102551.31
2023-05-24T21:17:21.643Z,102551.34
2023-05-24T21:19:53.909Z,102559.03
2023-05-24T21:22:26.130Z,102564.34
2023-05-24T21:24:58.500Z,102562.50
2023-05-24T21:27:33.199Z,102558.16
2023-05-24T21:30:05.932Z,102561.50
2023-05-24T21:32:38.254Z,102563.25
2023-05-24T21:35:10.482Z,102572.78
2023-05-24T21:37:42.706Z,102574.50
2023-05-24T21:40:14.825Z,102572.72
2023-05-24T21:42:46.951Z,102578.81
2023-05-24T21:45:19.056Z,102579.72
2023-05-24T21:47:51.363Z,102571.91
2023-05-24T21:50:23.644Z,102576.44
2023-05-24T21:52:55.885Z,102572.78
2023-05-24T21:55:29.668Z,102574.63
2023-05-24T21:58:01.816Z,102577.16
2023-05-24T22:00:37.832Z,102578.88
2023-05-24T22:03:13.115Z,102586.78
2023-05-24T22:05:45.461Z,102577.97
2023-05-24T22:08:19.848Z,102579.75
2023-05-24T22:10:52.156Z,102581.44
2023-05-24T22:13:24.462Z,102586.72
2023-05-24T22:15:56.927Z,102586.72
2023-05-24T22:18:30.760Z,102588.44
2023-05-24T22:21:08.705Z,102587.53
2023-05-24T22:23:41.584Z,102590.09
2023-05-24T22:26:17.350Z,102595.34
2023-05-24T22:29:00.780Z,102592.69
2023-05-24T22:31:34.073Z,102593.63
2023-05-24T22:34:11.541Z,102596.16
2023-05-24T22:36:46.810Z,102590.91
2023-05-24T22:39:19.351Z,102598.03
2023-05-24T22:41:53.039Z,102597.22
2023-05-24T22:44:26.572Z,102592.88
2023-05-24T22:46:58.732Z,102595.28
2023-05-24T22:49:34.444Z,102588.31
2023-05-24T22:52:07.220Z,102591.88
2023-05-24T22:54:39.328Z,102598.94
2023-05-24T22:57:11.442Z,102600.69
2023-05-24T22:59:45.997Z,102605.97
2023-05-24T23:02:18.255Z,102598.09
2023-05-24T23:04:50.425Z,102597.06
2023-05-24T23:07:22.542Z,102602.22
2023-05-24T23:09:54.933Z,102599.59
2023-05-24T23:12:27.045Z,102597.72
2023-05-24T23:14:59.688Z,102606.28
2023-05-24T23:17:31.810Z,102597.59
2023-05-24T23:20:05.281Z,102605.47
2023-05-24T23:22:37.826Z,102600.97
2023-05-24T23:25:10.704Z,102606.19
2023-05-24T23:27:42.876Z,102605.41
2023-05-24T23:30:15.171Z,102600.16
2023-05-24T23:32:47.324Z,102597.56
2023-05-24T23:35:19.570Z,102605.41
2023-05-24T23:37:53.479Z,102611.50
2023-05-24T23:40:28.792Z,102607.97
2023-05-24T23:43:01.034Z,102610.59
2023-05-24T23:45:33.177Z,102601.06
2023-05-24T23:48:05.908Z,102601.06
2023-05-24T23:50:53.143Z,102605.47
2023-05-24T23:53:26.024Z,102610.69
2023-05-24T23:55:58.139Z,102610.59
2023-05-24T23:58:30.389Z,102605.28
